Time;durP1;ratioP1;P1;durP2;ratioP2;P2;SDS_P1;SDS_P2;PMS_P1;PMS_P2;Temp;Humidity;BMP_temperature;BMP_pressure;BME280_temperature;BME280_humidity;BME280_pressure;Samples;Min_cycle;Max_cycle;Signal;HPM_P1;HPM_P2
2021/01/31 00:00:21;;;;;;;38.63;15.75;;;-1.70;90.80;;;;;;5053684;28;20033;-59
2021/01/31 00:02:47;;;;;;;43.58;18.60;;;-1.70;91.00;;;;;;5056343;28;20075;-59
2021/01/31 00:05:13;;;;;;;39.25;17.55;;;-1.60;90.70;;;;;;5043722;28;20829;-59
2021/01/31 00:07:39;;;;;;;39.95;15.50;;;-1.70;90.80;;;;;;5046308;28;20091;-59
2021/01/31 00:10:06;;;;;;;39.50;16.33;;;-1.70;90.80;;;;;;5052996;28;20484;-59
2021/01/31 00:12:32;;;;;;;38.75;17.90;;;-1.80;90.80;;;;;;5041806;28;20037;-59
2021/01/31 00:14:57;;;;;;;42.47;17.95;;;-1.90;90.80;;;;;;5049304;28;20067;-56
2021/01/31 00:17:23;;;;;;;39.33;17.13;;;-1.90;91.10;;;;;;5061916;28;20044;-59
2021/01/31 00:19:49;;;;;;;41.50;16.83;;;-1.80;91.00;;;;;;5049052;28;20052;-59
2021/01/31 00:22:15;;;;;;;40.20;17.42;;;-1.90;91.00;;;;;;5053266;28;20044;-58
2021/01/31 00:24:41;;;;;;;39.70;16.77;;;-1.90;91.10;;;;;;5063375;28;20082;-56
2021/01/31 00:27:07;;;;;;;43.50;18.60;;;-1.90;91.10;;;;;;5049580;28;20558;-55
2021/01/31 00:29:32;;;;;;;40.60;17.55;;;-1.90;91.20;;;;;;5059568;28;20048;-55
2021/01/31 00:31:58;;;;;;;45.60;19.13;;;-1.90;91.20;;;;;;5052242;28;20050;-53
2021/01/31 00:34:24;;;;;;;41.55;18.15;;;-1.90;91.10;;;;;;5058069;28;20412;-57
2021/01/31 00:36:50;;;;;;;41.33;18.67;;;-1.90;91.00;;;;;;5044106;28;20041;-56
2021/01/31 00:39:16;;;;;;;42.67;18.27;;;-1.90;91.10;;;;;;5041469;28;20045;-56
2021/01/31 00:41:43;;;;;;;41.33;17.13;;;-2.00;91.20;;;;;;5058666;28;20037;-54
2021/01/31 00:44:09;;;;;;;48.05;19.08;;;-1.90;91.10;;;;;;5057942;28;20611;-56
2021/01/31 00:46:38;;;;;;;41.40;17.25;;;-2.00;91.10;;;;;;5052419;28;20464;-57
2021/01/31 00:49:05;;;;;;;43.55;19.33;;;-2.00;91.20;;;;;;5047274;28;20535;-56
2021/01/31 00:51:31;;;;;;;42.53;17.35;;;-1.90;91.00;;;;;;5041008;28;20494;-56
2021/01/31 00:53:57;;;;;;;39.15;16.90;;;-2.00;91.20;;;;;;5053842;28;20056;-56
2021/01/31 00:56:24;;;;;;;41.45;17.30;;;-2.00;91.30;;;;;;5027383;28;20045;-55
2021/01/31 00:58:49;;;;;;;45.47;17.75;;;-2.00;91.10;;;;;;5055305;28;20041;-53
2021/01/31 01:01:17;;;;;;;46.78;18.60;;;-2.00;91.30;;;;;;5057321;28;20052;-53
2021/01/31 01:03:44;;;;;;;47.35;19.48;;;-2.00;91.10;;;;;;5047385;28;20553;-55
2021/01/31 01:06:10;;;;;;;47.38;19.60;;;-2.10;91.00;;;;;;5059599;28;20091;-54
2021/01/31 01:08:36;;;;;;;47.95;20.05;;;-2.10;91.20;;;;;;5039091;28;20046;-55
2021/01/31 01:11:02;;;;;;;50.78;19.85;;;-2.10;91.30;;;;;;5048516;28;20049;-53
2021/01/31 01:13:28;;;;;;;50.53;20.35;;;-2.10;91.20;;;;;;5052728;28;20048;-55
2021/01/31 01:15:54;;;;;;;47.78;18.90;;;-2.20;91.30;;;;;;5061682;28;20068;-54
2021/01/31 01:18:21;;;;;;;47.38;19.67;;;-2.10;91.10;;;;;;5053606;28;20536;-53
2021/01/31 01:20:47;;;;;;;52.15;19.63;;;-2.00;90.90;;;;;;5045229;28;20045;-53
2021/01/31 01:23:13;;;;;;;46.38;18.27;;;-2.10;91.10;;;;;;5055149;28;20037;-54
2021/01/31 01:25:38;;;;;;;46.75;18.05;;;-2.10;90.90;;;;;;5047847;28;20103;-54
2021/01/31 01:28:05;;;;;;;43.17;16.70;;;-2.10;91.20;;;;;;5053233;28;20040;-56
2021/01/31 01:30:32;;;;;;;44.95;17.38;;;-2.10;91.10;;;;;;5049517;28;20045;-52
2021/01/31 01:32:59;;;;;;;52.53;20.35;;;-1.90;91.00;;;;;;5046615;28;20048;-54
2021/01/31 01:35:26;;;;;;;46.92;19.88;;;-2.20;91.20;;;;;;5055837;28;20412;-54
2021/01/31 01:37:53;;;;;;;51.38;19.17;;;-2.20;91.00;;;;;;5052472;28;20507;-54
2021/01/31 01:40:38;;;;;;;52.72;20.00;;;-2.20;91.40;;;;;;5063114;28;20145;-56
2021/01/31 01:43:05;;;;;;;53.88;20.63;;;-2.20;91.20;;;;;;5045787;28;20033;-56
2021/01/31 01:45:32;;;;;;;52.47;20.88;;;-2.20;91.20;;;;;;5051837;28;20627;-54
2021/01/31 01:48:11;;;;;;;57.00;20.35;;;-2.30;91.40;;;;;;5048255;28;20138;-54
2021/01/31 01:50:41;;;;;;;47.78;19.83;;;-2.20;91.10;;;;;;5039498;28;20517;-55
2021/01/31 01:53:08;;;;;;;47.97;18.83;;;-2.30;91.30;;;;;;5044102;28;20041;-57
2021/01/31 01:55:41;;;;;;;52.15;20.65;;;-2.30;91.30;;;;;;5060721;28;20029;-55
2021/01/31 01:58:14;;;;;;;49.60;19.55;;;-2.20;91.10;;;;;;5051865;28;20037;-56
2021/01/31 02:00:43;;;;;;;59.38;20.58;;;-2.30;91.20;;;;;;5034213;28;20183;-56
2021/01/31 02:03:17;;;;;;;53.03;21.38;;;-2.40;91.50;;;;;;5050960;28;20500;-56
2021/01/31 02:05:49;;;;;;;48.50;19.00;;;-2.50;91.60;;;;;;5059172;28;20045;-56
2021/01/31 02:08:15;;;;;;;55.63;21.80;;;-2.30;91.50;;;;;;5052516;28;20028;-56
2021/01/31 02:10:41;;;;;;;52.38;21.15;;;-2.40;91.40;;;;;;5060235;28;20052;-56
2021/01/31 02:13:09;;;;;;;50.17;18.35;;;-2.40;91.50;;;;;;5051360;28;20041;-56
2021/01/31 02:15:35;;;;;;;57.00;20.55;;;-2.30;91.30;;;;;;5051779;28;20087;-57
2021/01/31 02:18:06;;;;;;;52.22;19.48;;;-2.40;91.30;;;;;;5050730;28;20088;-57
2021/01/31 02:20:45;;;;;;;54.28;21.60;;;-2.40;91.50;;;;;;5054764;28;20037;-54
2021/01/31 02:23:35;;;;;;;53.05;21.83;;;-2.40;91.40;;;;;;5050564;28;20044;-55
2021/01/31 02:26:14;;;;;;;53.83;21.20;;;-2.50;91.40;;;;;;5047977;28;20040;-55
2021/01/31 02:29:02;;;;;;;52.33;20.83;;;-2.50;91.60;;;;;;5045701;28;20037;-59
2021/01/31 02:31:55;;;;;;;55.45;22.13;;;-2.40;91.20;;;;;;5055203;28;20037;-59
2021/01/31 02:34:27;;;;;;;;;;;-2.40;91.30;;;;;;5050745;28;20065;-50
2021/01/31 02:37:03;;;;;;;55.38;21.85;;;-2.50;91.40;;;;;;5046831;28;20292;-56
2021/01/31 02:39:34;;;;;;;51.53;18.73;;;-2.50;91.50;;;;;;5062010;28;20043;-55
2021/01/31 02:42:12;;;;;;;51.70;20.33;;;-2.50;91.40;;;;;;5058825;28;20045;-55
2021/01/31 02:44:41;;;;;;;56.53;20.98;;;-2.50;91.30;;;;;;5056681;28;20375;-56
2021/01/31 02:47:14;;;;;;;52.88;20.83;;;-2.50;91.40;;;;;;5048365;28;20124;-54
2021/01/31 02:49:48;;;;;;;53.72;20.83;;;-2.50;91.20;;;;;;5052434;28;20429;-54
2021/01/31 02:52:24;;;;;;;49.53;20.17;;;-2.40;91.30;;;;;;5051276;28;20056;-53
2021/01/31 02:55:09;;;;;;;56.60;21.25;;;-2.50;91.40;;;;;;5046332;28;20488;-53
2021/01/31 02:58:09;;;;;;;52.00;20.52;;;-2.50;91.40;;;;;;5060377;28;20037;-54
2021/01/31 03:00:43;;;;;;;47.63;19.55;;;-2.80;91.50;;;;;;5039573;28;20037;-50
2021/01/31 03:03:23;;;;;;;49.53;20.20;;;-2.50;91.70;;;;;;5056408;28;20036;-54
2021/01/31 03:05:53;;;;;;;52.28;20.75;;;-2.40;91.30;;;;;;5023103;28;20045;-53
2021/01/31 03:08:30;;;;;;;51.25;19.55;;;-2.40;91.00;;;;;;5032509;28;20496;-53
2021/01/31 03:11:12;;;;;;;48.70;20.33;;;-2.50;91.30;;;;;;5050211;28;20044;-54
2021/01/31 03:13:57;;;;;;;50.20;20.10;;;-2.50;91.40;;;;;;5046360;28;20124;-53
2021/01/31 03:16:25;;;;;;;49.33;19.25;;;-2.50;91.40;;;;;;5049752;28;20465;-54
2021/01/31 03:19:00;;;;;;;54.72;22.40;;;-2.60;91.40;;;;;;5059223;28;20101;-56
2021/01/31 03:21:29;;;;;;;53.17;21.60;;;-2.50;91.50;;;;;;5054830;28;20041;-54
2021/01/31 03:24:22;;;;;;;50.28;20.58;;;-2.40;91.50;;;;;;5040478;28;20075;-55
2021/01/31 03:26:57;;;;;;;46.15;19.90;;;-2.60;91.60;;;;;;5054060;28;20062;-54
2021/01/31 03:29:23;;;;;;;;;;;-2.40;91.00;;;;;;5045590;28;20111;-56
2021/01/31 03:31:54;;;;;;;47.40;19.55;;;-2.40;90.90;;;;;;5066780;28;19920;-55
2021/01/31 03:34:30;;;;;;;51.35;20.17;;;-2.50;91.20;;;;;;5056679;28;20488;-54
2021/01/31 03:37:00;;;;;;;51.35;19.50;;;-2.50;91.30;;;;;;5050532;28;20065;-53
2021/01/31 03:39:29;;;;;;;50.80;21.02;;;-2.50;91.20;;;;;;5046535;28;20034;-52
2021/01/31 03:41:55;;;;;;;44.83;16.65;;;-2.50;91.10;;;;;;5050406;28;20032;-55
2021/01/31 03:44:21;;;;;;;50.80;19.40;;;-2.50;91.00;;;;;;5050794;28;20083;-55
2021/01/31 03:47:02;;;;;;;48.40;20.67;;;-2.50;91.10;;;;;;5053838;28;20045;-55
2021/01/31 03:49:35;;;;;;;48.80;20.10;;;-2.40;90.90;;;;;;5061467;28;20041;-56
2021/01/31 03:52:00;;;;;;;45.00;19.95;;;-2.50;91.30;;;;;;5052931;28;20067;-55
2021/01/31 03:54:27;;;;;;;42.47;17.08;;;-2.50;91.40;;;;;;5050672;28;20050;-55
2021/01/31 03:56:58;;;;;;;48.17;19.42;;;-2.40;90.90;;;;;;5053514;28;20102;-55
2021/01/31 03:59:48;;;;;;;50.15;20.60;;;-2.40;90.90;;;;;;5056091;28;20041;-56
2021/01/31 04:02:15;;;;;;;48.65;20.20;;;-2.50;91.00;;;;;;5056937;28;20116;-55
2021/01/31 04:04:49;;;;;;;49.88;20.00;;;-2.50;91.30;;;;;;5044850;28;20119;-55
2021/01/31 04:07:22;;;;;;;46.60;18.92;;;-2.50;91.00;;;;;;5056201;28;20489;-55
2021/01/31 04:09:48;;;;;;;50.38;19.67;;;-2.60;91.30;;;;;;5054209;28;20053;-55
2021/01/31 04:12:18;;;;;;;52.90;21.75;;;-2.60;91.10;;;;;;5049716;28;20044;-56
2021/01/31 04:14:53;;;;;;;46.53;20.88;;;-2.60;91.20;;;;;;5047450;28;20548;-55
2021/01/31 04:17:19;;;;;;;47.58;20.02;;;-2.60;91.30;;;;;;5057417;28;20037;-55
2021/01/31 04:19:46;;;;;;;47.03;18.50;;;-2.60;91.40;;;;;;5049840;28;20090;-54
2021/01/31 04:22:12;;;;;;;49.58;20.27;;;-2.60;91.50;;;;;;5045656;28;20037;-55
2021/01/31 04:24:37;;;;;;;48.90;20.48;;;-2.60;91.20;;;;;;5055732;28;20064;-55
2021/01/31 04:27:03;;;;;;;49.30;20.45;;;-2.60;91.30;;;;;;5059115;28;20048;-53
2021/01/31 04:29:29;;;;;;;49.95;19.52;;;-2.60;91.20;;;;;;5051353;28;20076;-55
2021/01/31 04:31:55;;;;;;;45.90;20.52;;;-2.60;91.40;;;;;;5059180;28;20443;-56
2021/01/31 04:34:21;;;;;;;52.25;20.13;;;-2.60;91.30;;;;;;5044804;28;20064;-55
2021/01/31 04:36:46;;;;;;;48.40;18.77;;;-2.70;91.40;;;;;;5055705;28;20357;-52
2021/01/31 04:39:12;;;;;;;48.88;20.17;;;-2.60;91.40;;;;;;5044400;28;20060;-51
2021/01/31 04:41:41;;;;;;;46.78;19.80;;;-2.60;91.30;;;;;;5054553;28;20412;-54
2021/01/31 04:44:12;;;;;;;44.20;19.20;;;-2.60;91.40;;;;;;5049442;28;20045;-55
2021/01/31 04:46:51;;;;;;;47.90;19.98;;;-2.50;91.20;;;;;;5049531;28;20421;-53
2021/01/31 04:49:32;;;;;;;47.83;19.65;;;-2.60;91.10;;;;;;5047206;28;20508;-54
2021/01/31 04:52:29;;;;;;;47.42;20.23;;;-2.60;91.10;;;;;;5051541;28;20048;-53
2021/01/31 04:55:10;;;;;;;46.10;19.60;;;-2.60;91.20;;;;;;5051611;28;20119;-55
2021/01/31 04:57:40;;;;;;;45.17;19.58;;;-2.60;91.10;;;;;;5047504;28;20038;-57
2021/01/31 05:00:18;;;;;;;44.53;19.35;;;-2.60;91.10;;;;;;5056684;28;20063;-52
2021/01/31 05:02:47;;;;;;;47.97;18.92;;;-2.60;91.10;;;;;;5038594;28;20072;-55
2021/01/31 05:05:24;;;;;;;49.95;20.48;;;-2.70;91.10;;;;;;5052638;28;20393;-52
2021/01/31 05:08:03;;;;;;;39.30;16.70;;;-2.70;91.00;;;;;;5050270;28;20041;-53
2021/01/31 05:10:29;;;;;;;46.53;19.23;;;-2.70;91.10;;;;;;5057396;28;20032;-51
2021/01/31 05:13:11;;;;;;;46.80;19.92;;;-2.70;90.90;;;;;;5058715;28;20042;-54
2021/01/31 05:15:55;;;;;;;50.20;20.73;;;-2.70;91.10;;;;;;5054343;28;20540;-50
2021/01/31 05:18:22;;;;;;;49.72;20.10;;;-2.80;91.30;;;;;;5053048;28;20112;-51
2021/01/31 05:20:53;;;;;;;45.28;19.65;;;-2.70;91.40;;;;;;5051041;28;20045;-56
2021/01/31 05:23:19;;;;;;;46.03;18.90;;;-2.70;91.10;;;;;;5048536;28;20041;-53
2021/01/31 05:25:46;;;;;;;47.25;20.33;;;-2.70;91.20;;;;;;5052835;28;20397;-53
2021/01/31 05:28:12;;;;;;;49.22;20.70;;;-2.60;91.00;;;;;;5042799;28;20037;-54
2021/01/31 05:30:43;;;;;;;46.38;19.60;;;-2.60;90.80;;;;;;5049367;28;20032;-51
2021/01/31 05:33:23;;;;;;;46.35;19.50;;;-2.60;90.90;;;;;;5040903;28;20064;-52
2021/01/31 05:36:06;;;;;;;48.90;20.10;;;-2.60;91.00;;;;;;5048367;28;20036;-55
2021/01/31 05:38:40;;;;;;;48.38;19.98;;;-2.70;91.00;;;;;;5043623;28;20044;-52
2021/01/31 05:41:31;;;;;;;45.00;19.98;;;-2.70;91.30;;;;;;5052931;28;20381;-54
2021/01/31 05:44:08;;;;;;;46.00;19.70;;;-2.60;91.10;;;;;;5053390;28;20123;-52
2021/01/31 05:46:39;;;;;;;45.13;19.58;;;-2.70;91.10;;;;;;5054431;28;20121;-50
2021/01/31 05:49:08;;;;;;;44.53;19.83;;;-2.70;91.30;;;;;;5045761;28;20068;-54
2021/01/31 05:51:34;;;;;;;43.47;19.10;;;-2.60;90.90;;;;;;5060150;28;20040;-57
2021/01/31 05:54:39;;;;;;;46.53;19.55;;;-2.70;91.10;;;;;;5050247;28;20117;-57
2021/01/31 05:57:22;;;;;;;46.92;19.27;;;-2.70;91.20;;;;;;5048204;28;20061;-56
2021/01/31 05:59:48;;;;;;;49.25;20.83;;;-2.70;91.30;;;;;;5043319;28;20037;-57
2021/01/31 06:02:28;;;;;;;47.80;19.58;;;-2.80;91.40;;;;;;5055008;28;20037;-56
2021/01/31 06:05:20;;;;;;;43.30;19.55;;;-2.80;91.50;;;;;;5043002;28;20113;-54
2021/01/31 06:07:56;;;;;;;43.65;18.83;;;-2.80;91.50;;;;;;5041998;28;20052;-54
2021/01/31 06:10:23;;;;;;;42.97;18.98;;;-2.80;91.40;;;;;;5035209;28;20052;-55
2021/01/31 06:12:50;;;;;;;44.63;19.27;;;-2.80;91.50;;;;;;5048386;28;20549;-55
2021/01/31 06:15:29;;;;;;;43.72;19.23;;;-2.90;91.40;;;;;;5052458;28;20105;-55
2021/01/31 06:17:59;;;;;;;45.95;18.65;;;-2.80;91.30;;;;;;5054907;28;20124;-55
2021/01/31 06:20:38;;;;;;;42.75;19.75;;;-2.80;91.20;;;;;;5053437;28;20036;-54
2021/01/31 06:23:05;;;;;;;43.97;19.70;;;-2.90;91.40;;;;;;5052844;28;20037;-55
2021/01/31 06:25:40;;;;;;;47.47;20.52;;;-2.80;91.30;;;;;;5061272;28;20051;-54
2021/01/31 06:28:09;;;;;;;45.05;20.15;;;-2.80;91.40;;;;;;5046145;28;20114;-55
2021/01/31 06:30:36;;;;;;;48.85;19.63;;;-2.90;91.60;;;;;;5051848;28;20064;-56
2021/01/31 06:33:02;;;;;;;46.90;19.45;;;-2.80;91.30;;;;;;5056015;28;20041;-55
2021/01/31 06:35:28;;;;;;;44.40;19.50;;;-2.80;91.10;;;;;;5050172;28;20044;-51
2021/01/31 06:38:18;;;;;;;42.22;18.75;;;-2.80;90.90;;;;;;5036666;28;20079;-50
2021/01/31 06:41:09;;;;;;;44.65;19.63;;;-2.80;91.00;;;;;;5045524;28;20060;-57
2021/01/31 06:44:00;;;;;;;43.38;19.83;;;-2.80;90.90;;;;;;5056165;28;20094;-57
2021/01/31 06:46:42;;;;;;;45.72;19.77;;;-2.90;91.00;;;;;;5035809;28;20037;-56
2021/01/31 06:49:47;;;;;;;46.40;19.02;;;-2.90;91.20;;;;;;5037964;28;20438;-56
2021/01/31 06:52:48;;;;;;;46.38;19.70;;;-2.90;91.20;;;;;;5010689;28;20123;-52
2021/01/31 06:55:32;;;;;;;47.25;19.95;;;-2.90;91.30;;;;;;5060696;28;20552;-54
2021/01/31 06:58:19;;;;;;;48.08;19.55;;;-2.90;91.30;;;;;;5057444;28;20485;-55
2021/01/31 07:01:04;;;;;;;45.80;19.92;;;-3.00;91.40;;;;;;5045471;28;20038;-56
2021/01/31 07:03:58;;;;;;;47.08;19.83;;;-3.00;91.60;;;;;;5039855;28;20454;-55
2021/01/31 07:06:36;;;;;;;43.80;19.52;;;-3.00;91.40;;;;;;5045216;28;20052;-57
2021/01/31 07:09:18;;;;;;;45.88;19.70;;;-3.00;91.40;;;;;;5038438;28;20041;-54
2021/01/31 07:11:51;;;;;;;48.13;20.20;;;-3.00;91.30;;;;;;5039258;28;20124;-57
2021/01/31 07:14:33;;;;;;;48.90;19.85;;;-3.00;91.20;;;;;;5053681;28;20037;-52
2021/01/31 07:17:22;;;;;;;50.30;20.60;;;-3.00;91.30;;;;;;5049134;28;20045;-55
2021/01/31 07:20:08;;;;;;;44.85;21.13;;;-3.00;91.60;;;;;;5034465;28;20046;-50
2021/01/31 07:22:48;;;;;;;44.42;19.10;;;-3.10;91.40;;;;;;5042145;28;20048;-50
2021/01/31 07:25:36;;;;;;;45.80;19.63;;;-3.10;91.40;;;;;;5049299;28;20029;-49
2021/01/31 07:28:25;;;;;;;44.03;19.38;;;-3.10;91.30;;;;;;5055065;28;20075;-51
2021/01/31 07:30:59;;;;;;;48.30;20.35;;;-3.00;91.10;;;;;;5039818;28;20038;-49
2021/01/31 07:33:32;;;;;;;44.53;19.90;;;-3.00;91.30;;;;;;5054914;28;20045;-53
2021/01/31 07:36:07;;;;;;;49.15;21.88;;;-3.00;91.10;;;;;;5056428;28;20123;-52
2021/01/31 07:38:54;;;;;;;44.33;20.00;;;-3.00;91.20;;;;;;5059214;28;20045;-53
2021/01/31 07:41:21;;;;;;;46.05;20.70;;;-3.00;91.30;;;;;;5045583;28;20112;-52
2021/01/31 07:43:56;;;;;;;46.70;19.20;;;-3.00;91.30;;;;;;5045850;28;20057;-54
2021/01/31 07:46:22;;;;;;;45.90;20.42;;;-3.00;91.50;;;;;;5049499;28;20041;-58
2021/01/31 07:48:50;;;;;;;44.88;21.88;;;-3.00;91.40;;;;;;5055145;28;20047;-57
2021/01/31 07:51:39;;;;;;;47.80;21.30;;;-2.90;91.40;;;;;;5022678;28;20046;-58
2021/01/31 07:54:23;;;;;;;47.58;20.27;;;-2.90;91.40;;;;;;5032551;28;20128;-58
2021/01/31 07:56:51;;;;;;;50.30;21.55;;;-2.80;91.10;;;;;;5039012;28;20068;-58
2021/01/31 07:59:20;;;;;;;47.20;20.13;;;-2.70;90.80;;;;;;5045080;28;20057;-58
2021/01/31 08:01:57;;;;;;;44.90;20.05;;;-2.80;91.10;;;;;;5039033;28;20490;-57
2021/01/31 08:04:25;;;;;;;44.72;19.55;;;-2.80;91.20;;;;;;5061457;28;20051;-55
2021/01/31 08:06:54;;;;;;;46.58;20.23;;;-2.70;91.20;;;;;;5052375;28;20041;-58
2021/01/31 08:09:25;;;;;;;45.28;20.98;;;-2.80;91.40;;;;;;5057256;28;20091;-58
2021/01/31 08:11:54;;;;;;;44.17;20.63;;;-2.70;91.40;;;;;;5057846;28;20050;-53
2021/01/31 08:14:57;;;;;;;41.75;19.42;;;-2.70;91.40;;;;;;5051571;28;20102;-50
2021/01/31 08:17:42;;;;;;;;;;;-2.60;91.20;;;;;;5046738;28;20402;-54
2021/01/31 08:20:17;;;;;;;44.38;20.17;;;-2.50;90.90;;;;;;5055038;28;19924;-53
2021/01/31 08:22:43;;;;;;;43.25;19.73;;;-2.60;91.20;;;;;;5044597;28;20052;-50
2021/01/31 08:25:10;;;;;;;44.22;20.55;;;-2.50;91.30;;;;;;5045745;28;20047;-54
2021/01/31 08:27:42;;;;;;;46.97;21.02;;;-2.50;91.10;;;;;;5047290;28;20041;-54
2021/01/31 08:30:28;;;;;;;41.67;19.42;;;-2.40;91.10;;;;;;5054637;28;20096;-54
2021/01/31 08:33:00;;;;;;;44.63;20.02;;;-2.40;91.20;;;;;;5052126;28;20051;-55
2021/01/31 08:35:41;;;;;;;42.50;20.25;;;-2.40;91.30;;;;;;5057726;28;20083;-51
2021/01/31 08:38:16;;;;;;;42.65;20.65;;;-2.30;91.40;;;;;;5044809;28;20074;-53
2021/01/31 08:43:37;;;;;;;43.20;20.60;;;-2.20;91.40;;;;;;5036595;28;20044;-55
2021/01/31 08:46:08;;;;;;;43.65;21.27;;;-2.20;91.40;;;;;;5051307;28;20494;-54
2021/01/31 08:48:35;;;;;;;41.45;19.30;;;-2.10;91.40;;;;;;5058143;28;20045;-52
2021/01/31 08:51:14;;;;;;;43.17;20.60;;;-2.10;91.40;;;;;;5049286;28;20069;-57
2021/01/31 08:53:40;;;;;;;42.70;20.00;;;-2.00;91.40;;;;;;5038598;28;20088;-53
2021/01/31 08:56:15;;;;;;;43.22;20.50;;;-1.90;91.40;;;;;;5040493;28;20457;-52
2021/01/31 08:58:41;;;;;;;37.53;18.75;;;-1.90;91.40;;;;;;5037769;28;20092;-50
2021/01/31 09:01:07;;;;;;;43.17;19.60;;;-1.80;91.50;;;;;;5052402;28;20037;-55
2021/01/31 09:03:34;;;;;;;35.67;18.42;;;-1.70;91.20;;;;;;5042174;28;20042;-52
2021/01/31 09:06:00;;;;;;;38.17;17.95;;;-1.60;90.80;;;;;;5035727;28;20577;-58
2021/01/31 09:08:26;;;;;;;38.40;17.90;;;-1.50;90.70;;;;;;5044628;28;20147;-58
2021/01/31 09:10:52;;;;;;;36.25;17.05;;;-1.50;90.70;;;;;;5031358;28;20402;-58
2021/01/31 09:13:34;;;;;;;36.50;17.17;;;-1.50;90.60;;;;;;5030195;28;20521;-58
2021/01/31 09:16:29;;;;;;;36.45;17.52;;;-1.40;90.70;;;;;;5036605;28;20195;-58
2021/01/31 09:19:22;;;;;;;36.13;17.00;;;-1.40;90.80;;;;;;5026568;28;20052;-59
2021/01/31 09:22:01;;;;;;;33.60;16.73;;;-1.30;90.60;;;;;;5031437;28;20045;-59
2021/01/31 09:24:32;;;;;;;34.47;17.27;;;-1.30;90.50;;;;;;5044814;28;20045;-58
2021/01/31 09:26:58;;;;;;;34.92;17.23;;;-1.20;90.70;;;;;;5041302;28;20042;-58
2021/01/31 09:29:27;;;;;;;34.75;17.00;;;-1.20;90.80;;;;;;5032786;28;20136;-58
2021/01/31 09:32:19;;;;;;;36.72;17.85;;;-1.10;90.80;;;;;;5045947;28;20041;-58
2021/01/31 09:34:51;;;;;;;31.90;15.82;;;-1.00;90.80;;;;;;5035413;28;20580;-58
2021/01/31 09:37:26;;;;;;;33.90;16.73;;;-1.00;90.90;;;;;;5040977;28;20508;-59
2021/01/31 09:39:55;;;;;;;29.73;15.25;;;-1.00;91.00;;;;;;5048562;28;20048;-56
2021/01/31 09:42:21;;;;;;;31.65;15.30;;;-0.90;90.90;;;;;;5033154;28;20037;-58
2021/01/31 09:44:55;;;;;;;32.28;15.15;;;-0.70;90.00;;;;;;5046791;28;20041;-55
2021/01/31 09:47:22;;;;;;;31.48;15.98;;;-0.70;89.80;;;;;;5050675;28;20497;-56
2021/01/31 09:49:53;;;;;;;31.83;16.15;;;-0.70;90.10;;;;;;5049995;28;20037;-57
2021/01/31 09:52:19;;;;;;;32.75;16.60;;;-0.70;89.90;;;;;;5038245;28;20128;-56
2021/01/31 09:54:44;;;;;;;33.00;15.98;;;-0.70;90.20;;;;;;5030852;28;20041;-57
2021/01/31 09:57:23;;;;;;;31.35;16.38;;;-0.60;90.10;;;;;;5050315;28;20033;-57
2021/01/31 10:00:03;;;;;;;34.15;16.77;;;-0.60;90.10;;;;;;5050908;28;20100;-57
2021/01/31 10:02:31;;;;;;;31.30;15.73;;;-0.60;90.20;;;;;;5044612;28;20068;-57
2021/01/31 10:05:01;;;;;;;35.42;16.48;;;-0.50;90.20;;;;;;5036873;28;20053;-57
2021/01/31 10:07:33;;;;;;;35.90;16.67;;;-0.50;90.30;;;;;;5049826;28;20112;-57
2021/01/31 10:10:37;;;;;;;30.70;15.93;;;-0.30;90.10;;;;;;5038539;28;20065;-56
2021/01/31 10:13:24;;;;;;;35.75;16.48;;;-0.30;89.30;;;;;;5030718;28;20555;-56
2021/01/31 10:15:56;;;;;;;33.42;16.55;;;-0.30;88.70;;;;;;5030811;28;20041;-57
2021/01/31 10:18:32;;;;;;;31.85;16.35;;;-0.30;89.50;;;;;;5040666;28;20042;-56
2021/01/31 10:21:19;;;;;;;31.25;16.20;;;-0.20;89.90;;;;;;5038326;28;20041;-57
2021/01/31 10:23:46;;;;;;;30.35;14.82;;;-0.10;89.70;;;;;;5040176;28;20433;-57
2021/01/31 10:26:17;;;;;;;30.90;15.75;;;-0.10;88.50;;;;;;5047968;28;20033;-57
2021/01/31 10:29:04;;;;;;;31.55;15.20;;;0.00;88.60;;;;;;5039627;28;20036;-54
2021/01/31 10:31:40;;;;;;;34.78;16.33;;;-0.10;88.80;;;;;;5045150;28;20034;-57
2021/01/31 10:34:10;;;;;;;35.05;17.08;;;0.00;88.70;;;;;;5041657;28;20045;-53
2021/01/31 10:36:42;;;;;;;33.67;16.00;;;0.10;89.00;;;;;;5029189;28;20168;-54
2021/01/31 10:39:25;;;;;;;30.83;15.68;;;0.20;88.30;;;;;;5041539;28;20041;-51
2021/01/31 10:41:52;;;;;;;31.17;15.18;;;0.20;88.10;;;;;;5049137;28;20045;-53
2021/01/31 10:44:21;;;;;;;30.65;15.18;;;0.20;87.30;;;;;;5038272;28;20041;-57
2021/01/31 10:46:46;;;;;;;33.80;16.95;;;0.20;86.50;;;;;;5034166;28;20402;-53
2021/01/31 10:49:12;;;;;;;34.50;16.95;;;0.20;87.40;;;;;;5035416;28;20060;-51
2021/01/31 10:51:41;;;;;;;31.58;15.23;;;0.20;88.00;;;;;;5035733;28;20489;-53
2021/01/31 10:54:07;;;;;;;28.92;14.88;;;0.20;87.90;;;;;;5034313;28;20041;-53
2021/01/31 10:56:32;;;;;;;26.13;13.45;;;0.30;87.10;;;;;;5047168;28;20039;-55
2021/01/31 10:58:58;;;;;;;28.60;14.30;;;0.40;86.30;;;;;;5040512;28;20041;-56
2021/01/31 11:01:24;;;;;;;27.77;14.45;;;0.40;87.20;;;;;;5054284;28;20384;-53
2021/01/31 11:03:50;;;;;;;27.20;14.27;;;0.40;87.90;;;;;;5035605;28;20099;-54
2021/01/31 11:06:17;;;;;;;25.52;12.93;;;0.50;87.20;;;;;;5046143;28;20389;-57
2021/01/31 11:08:43;;;;;;;28.08;13.27;;;0.50;87.20;;;;;;5041033;28;20195;-53
2021/01/31 11:11:09;;;;;;;25.20;12.90;;;0.60;85.30;;;;;;5045116;28;20078;-57
2021/01/31 11:13:34;;;;;;;23.55;12.45;;;0.70;83.90;;;;;;5040250;28;20048;-54
2021/01/31 11:16:01;;;;;;;22.75;12.02;;;0.60;84.30;;;;;;5039684;28;20037;-57
2021/01/31 11:18:27;;;;;;;22.65;11.45;;;0.70;84.80;;;;;;5038073;28;20044;-53
2021/01/31 11:20:53;;;;;;;25.90;12.35;;;0.70;83.50;;;;;;5038833;28;20029;-51
2021/01/31 11:23:19;;;;;;;21.80;11.77;;;0.70;83.40;;;;;;5038285;28;20037;-54
2021/01/31 11:25:45;;;;;;;24.55;11.75;;;0.70;84.40;;;;;;5034784;28;20120;-54
2021/01/31 11:28:11;;;;;;;21.33;11.63;;;0.70;84.80;;;;;;5036472;28;20038;-56
2021/01/31 11:30:37;;;;;;;24.85;13.13;;;0.80;83.60;;;;;;5034767;28;20395;-51
2021/01/31 11:33:03;;;;;;;20.92;11.00;;;0.80;83.80;;;;;;5033389;28;20069;-54
2021/01/31 11:35:30;;;;;;;20.92;11.15;;;0.80;84.40;;;;;;5045921;28;20036;-54
2021/01/31 11:37:55;;;;;;;21.73;10.77;;;0.80;83.80;;;;;;5040145;28;20136;-51
2021/01/31 11:40:22;;;;;;;21.02;10.68;;;0.80;83.50;;;;;;5036757;28;20112;-56
2021/01/31 11:42:48;;;;;;;23.67;11.98;;;0.80;83.50;;;;;;5034060;28;20405;-56
2021/01/31 11:45:16;;;;;;;20.88;11.00;;;0.90;82.30;;;;;;5034982;28;20390;-51
2021/01/31 11:47:42;;;;;;;18.42;9.75;;;0.90;82.50;;;;;;5033121;28;20049;-51
2021/01/31 11:50:09;;;;;;;22.48;11.18;;;0.90;82.30;;;;;;5033469;28;20083;-54
2021/01/31 11:52:35;;;;;;;19.80;10.88;;;1.00;81.30;;;;;;5035122;28;20555;-55
2021/01/31 11:55:01;;;;;;;20.35;11.05;;;0.90;82.50;;;;;;5035477;28;20053;-56
2021/01/31 11:57:27;;;;;;;24.98;12.40;;;0.90;82.70;;;;;;5036174;28;20046;-54
2021/01/31 11:59:53;;;;;;;22.65;11.90;;;0.90;82.60;;;;;;5038491;28;20345;-54
2021/01/31 12:02:18;;;;;;;22.55;11.68;;;0.90;83.40;;;;;;5040982;28;20038;-53
2021/01/31 12:04:44;;;;;;;19.88;10.73;;;0.90;83.10;;;;;;5034312;28;20076;-53
2021/01/31 12:07:10;;;;;;;21.67;12.05;;;1.00;83.40;;;;;;5035684;28;20037;-55
2021/01/31 12:09:38;;;;;;;22.65;12.35;;;1.10;82.30;;;;;;5040261;28;20075;-55
2021/01/31 12:12:04;;;;;;;24.23;12.77;;;1.10;83.00;;;;;;5041804;28;20069;-57
2021/01/31 12:14:30;;;;;;;22.75;12.45;;;1.10;83.00;;;;;;5038123;28;20087;-54
2021/01/31 12:16:55;;;;;;;22.90;12.00;;;1.20;81.90;;;;;;5048070;28;20048;-55
2021/01/31 12:19:24;;;;;;;22.98;11.80;;;1.20;82.50;;;;;;5042534;28;20273;-54
2021/01/31 12:21:50;;;;;;;21.63;11.63;;;1.20;81.90;;;;;;5035783;28;20076;-58
2021/01/31 12:24:16;;;;;;;23.27;12.45;;;1.30;81.00;;;;;;5042755;28;20131;-56
2021/01/31 12:26:43;;;;;;;25.70;13.50;;;1.30;81.40;;;;;;5041421;28;20128;-56
2021/01/31 12:29:11;;;;;;;29.65;15.40;;;1.20;82.00;;;;;;5034564;28;20120;-55
2021/01/31 12:31:36;;;;;;;22.13;11.85;;;1.20;82.70;;;;;;5044898;28;20125;-58
2021/01/31 12:34:02;;;;;;;23.17;11.85;;;1.20;83.30;;;;;;5031513;28;20152;-56
2021/01/31 12:36:28;;;;;;;21.40;11.38;;;1.20;83.40;;;;;;5033236;28;20052;-58
2021/01/31 12:38:53;;;;;;;26.27;12.25;;;1.30;83.40;;;;;;5041855;28;20041;-50
2021/01/31 12:41:19;;;;;;;23.33;12.80;;;1.40;81.90;;;;;;5040489;28;20478;-53
2021/01/31 12:43:44;;;;;;;23.02;12.25;;;1.40;82.40;;;;;;5046647;28;20086;-56
2021/01/31 12:46:10;;;;;;;26.17;12.75;;;1.40;82.40;;;;;;5035459;28;20038;-52
2021/01/31 12:48:35;;;;;;;23.65;12.73;;;1.50;82.10;;;;;;5038293;28;20053;-53
2021/01/31 12:51:01;;;;;;;24.35;12.75;;;1.50;82.20;;;;;;5041121;28;20489;-51
2021/01/31 12:53:27;;;;;;;22.05;11.73;;;1.70;81.00;;;;;;5048407;28;20037;-53
2021/01/31 12:55:53;;;;;;;23.80;12.35;;;1.70;82.20;;;;;;5039528;28;20037;-57
2021/01/31 12:58:18;;;;;;;24.65;12.85;;;1.70;81.80;;;;;;5044381;28;20041;-50